New Hampton, IA (50659)

8:20 AM CDT on August 31, 2015 (GMT -0500)
Charles City Municipal | | Change Station
CLOSE
Current Station
Airport
Location: Charles City,
Elevation: 1125 ft
Nearby Weather Stations
Active Advisory: Special Statement

Elev 1125 ft 43.07 °N, 92.61 °W | Updated 25 minutes ago

Fog
Fog
63 °F
Feels Like 63 °F
N
6
Wind Variable Wind from Variable

Today
High -- | Low -- °F
--% Chance of Precip.
Yesterday
High -- | Low -- °F
Precip. -- in
6:32 AM 7:46 PM
Waning Gibbous, 95% visible
Pressure 30.02 in
Visibility 0.2 miles
Clouds Overcast 300 ft
Dew Point 63 °F
Humidity 100%
Rainfall 0.00 in
Snow Depth Not available.
UV 0 out of 12
Pollen 10.80 out of 12
Air Quality Not available.
Flu Activity Not available.
METAR KCCY 311255Z AUTO VRB05KT M1/4SM FG OVC003 17/17 A3002 RMK AO2
Pressure 30.02 in
Visibility 0.2 miles
Clouds Overcast 300 ft
Dew Point 63 °F
Humidity 100%
Rainfall 0.00 in
Snow Depth Not available.
UV 0 out of 12
Pollen 10.80 out of 12
Air Quality Not available.
Flu Activity Not available.
METAR KCCY 311255Z AUTO VRB05KT M1/4SM FG OVC003 17/17 A3002 RMK AO2

10-Day Weather Forecast

×

Almanac

Astronomy

Aug. 31, 2015 Rise Set
Actual Time
Civil Twilight
Nautical Twilight
Astronomical Twilight
Moon
Length of Visible Light
Length of Day
Tomorrow will be .
, % of the Moon is Illuminated

Today's Extremes

State Highs State Lows

Community

WunderPhotos

Upload Photos

1,851,231 photos uploaded!

WunderBlogs® & News

Nearby

Air Quality

  Air Quality AQ Index Pollutant
Not available.

Snow Depth

Station Depth Elevation

Earthquake Activity

City Distance Mag. Time & Date
Minimum magnitude displayed is 2.5.

Coastal Water Temperatures

Place Temperature

Stations

Nearby Weather Stations

Station Location Temp. Windchill Dew Point Humidity Wind Precip. Elev Updated Type
                   
Special Statement
Statement as of 7:44 AM CDT on August 31, 2015

... Patchy dense fog early this morning...

Watch out for patchy dense fog this morning. Visibility may be
reduced to 1/4 mile at times which could impact travel. Slow down
and use caution. The visibility is expected to improve by 9 am.


Das

744 am CDT Mon Aug 31 2015

... Patchy dense fog early this morning...

Watch out for patchy dense fog this morning. Visibility may be
reduced to 1/4 mile at times which could impact travel. Slow down
and use caution. The visibility is expected to improve by 9 am.


Das